Observation data for Aspermont on 07/04/2020      Previous  Date  Next       Current Mesonet Observations  Soil Data  Daily Summary Page  Observations in Plain Language
KASR 040500Z 13006KT 29/19 A2998 RMK A01 T02850194  RH  060%=      5-min Rain = 0
KASR 040505Z 13006KT 29/19 A2998 RMK A01 T02850194  RH  060%=      5-min Rain = 0
KASR 040510Z 13006KT 28/19 A2998 RMK A01 T02840194  RH  060%=      5-min Rain = 0
KASR 040515Z 13006KT 28/19 A2998 RMK A01 T02840194  RH  060%=      5-min Rain = 0
KASR 040520Z 13006KT 28/19 A2998 RMK A01 T02830193  RH  060%=      5-min Rain = 0
KASR 040525Z 13006KT 28/19 A2998 RMK A01 T02810193  RH  060%=      5-min Rain = 0
KASR 040530Z 13005KT 28/19 A2998 RMK A01 T02790193  RH  061%=      5-min Rain = 0
KASR 040535Z 13006KT 28/19 A2998 RMK A01 T02770192  RH  062%=      5-min Rain = 0
KASR 040540Z 13005KT 28/19 A2998 RMK A01 T02750191  RH  062%=      5-min Rain = 0
KASR 040545Z 13005KT 27/19 A2998 RMK A01 T02720191  RH  063%=      5-min Rain = 0
KASR 040550Z 13005KT 27/19 A2998 RMK A01 T02710190  RH  063%=      5-min Rain = 0
KASR 040555Z 13005KT 27/19 A2998 RMK A01 T02700189  RH  063%=      5-min Rain = 0
KASR 040600Z 13004KT 27/19 A2998 RMK A01 T02690188  RH  063%=      5-min Rain = 0
KASR 040605Z 13003KT 27/19 A2998 RMK A01 T02670187  RH  063%=      5-min Rain = 0
KASR 040610Z 12003KT 26/19 A2998 RMK A01 T02640186  RH  064%=      5-min Rain = 0
KASR 040615Z 12003KT 26/19 A2998 RMK A01 T02610185  RH  065%=      5-min Rain = 0
KASR 040620Z 13003KT 26/18 A2998 RMK A01 T02590184  RH  065%=      5-min Rain = 0
KASR 040625Z 12003KT 26/18 A2998 RMK A01 T02570184  RH  066%=      5-min Rain = 0
KASR 040630Z 13003KT 25/18 A2997 RMK A01 T02540183  RH  066%=      5-min Rain = 0
KASR 040635Z 13003KT 25/18 A2997 RMK A01 T02520183  RH  067%=      5-min Rain = 0
KASR 040640Z 14002KT 25/18 A2997 RMK A01 T02490182  RH  068%=      5-min Rain = 0
KASR 040645Z 13003KT 25/18 A2997 RMK A01 T02460181  RH  069%=      5-min Rain = 0
KASR 040650Z 13003KT 24/18 A2997 RMK A01 T02430180  RH  070%=      5-min Rain = 0
KASR 040655Z 13003KT 24/18 A2997 RMK A01 T02400180  RH  071%=      5-min Rain = 0
KASR 040700Z 13003KT 24/18 A2997 RMK A01 T02380179  RH  072%=      5-min Rain = 0
KASR 040705Z 13003KT 24/18 A2997 RMK A01 T02360179  RH  072%=      5-min Rain = 0
KASR 040710Z 12003KT 24/18 A2997 RMK A01 T02370178  RH  071%=      5-min Rain = 0
KASR 040715Z 13003KT 24/18 A2997 RMK A01 T02370176  RH  071%=      5-min Rain = 0
KASR 040720Z 13003KT 24/18 A2997 RMK A01 T02370176  RH  070%=      5-min Rain = 0
KASR 040725Z 13003KT 24/18 A2997 RMK A01 T02370175  RH  070%=      5-min Rain = 0
KASR 040730Z 12004KT 24/17 A2996 RMK A01 T02380174  RH  069%=      5-min Rain = 0
KASR 040735Z 12004KT 24/17 A2996 RMK A01 T02390173  RH  068%=      5-min Rain = 0
KASR 040740Z 13005KT 24/17 A2996 RMK A01 T02420169  RH  065%=      5-min Rain = 0
KASR 040745Z 13005KT 25/17 A2996 RMK A01 T02460165  RH  062%=      5-min Rain = 0
KASR 040750Z 14003KT 25/16 A2996 RMK A01 T02490162  RH  060%=      5-min Rain = 0
KASR 040755Z 14004KT 25/16 A2996 RMK A01 T02490161  RH  059%=      5-min Rain = 0
KASR 040800Z 13006KT 25/16 A2996 RMK A01 T02490159  RH  059%=      5-min Rain = 0
KASR 040805Z 13006KT 25/16 A2996 RMK A01 T02520157  RH  057%=      5-min Rain = 0
KASR 040810Z 14006KT 25/16 A2996 RMK A01 T02520157  RH  057%=      5-min Rain = 0
KASR 040815Z 14006KT 25/16 A2996 RMK A01 T02500157  RH  058%=      5-min Rain = 0
KASR 040820Z 14007KT 25/15 A2996 RMK A01 T02500154  RH  057%=      5-min Rain = 0
KASR 040825Z 13006KT 25/15 A2996 RMK A01 T02520153  RH  055%=      5-min Rain = 0
KASR 040830Z 14005KT 25/15 A2996 RMK A01 T02510153  RH  055%=      5-min Rain = 0
KASR 040835Z 14006KT 25/15 A2996 RMK A01 T02500153  RH  056%=      5-min Rain = 0
KASR 040840Z 15006KT 25/15 A2996 RMK A01 T02490151  RH  056%=      5-min Rain = 0
KASR 040845Z 15006KT 25/15 A2996 RMK A01 T02500149  RH  054%=      5-min Rain = 0
KASR 040850Z 14006KT 25/15 A2996 RMK A01 T02500149  RH  054%=      5-min Rain = 0
KASR 040855Z 14005KT 25/15 A2996 RMK A01 T02480149  RH  055%=      5-min Rain = 0
KASR 040900Z 15005KT 25/15 A2996 RMK A01 T02460149  RH  056%=      5-min Rain = 0
KASR 040905Z 15005KT 24/15 A2996 RMK A01 T02440149  RH  057%=      5-min Rain = 0
KASR 040910Z 15005KT 24/15 A2996 RMK A01 T02410148  RH  057%=      5-min Rain = 0
KASR 040915Z 15005KT 24/15 A2996 RMK A01 T02390148  RH  058%=      5-min Rain = 0
KASR 040920Z 15005KT 24/15 A2996 RMK A01 T02370148  RH  059%=      5-min Rain = 0
KASR 040925Z 16004KT 23/15 A2996 RMK A01 T02340149  RH  060%=      5-min Rain = 0
KASR 040930Z 17003KT 23/15 A2996 RMK A01 T02320150  RH  061%=      5-min Rain = 0
KASR 040935Z 17001KT 23/15 A2996 RMK A01 T02290152  RH  063%=      5-min Rain = 0
KASR 040940Z 15001KT 22/15 A2996 RMK A01 T02240152  RH  065%=      5-min Rain = 0
KASR 040945Z 16003KT 22/15 A2996 RMK A01 T02230149  RH  064%=      5-min Rain = 0
KASR 040950Z 17003KT 22/15 A2996 RMK A01 T02220150  RH  065%=      5-min Rain = 0
KASR 040955Z 20001KT 22/15 A2996 RMK A01 T02190150  RH  066%=      5-min Rain = 0
KASR 041000Z 20002KT 22/15 A2996 RMK A01 T02160151  RH  068%=      5-min Rain = 0
KASR 041005Z 21002KT 22/15 A2996 RMK A01 T02150154  RH  070%=      5-min Rain = 0
KASR 041010Z 22003KT 21/16 A2996 RMK A01 T02130155  RH  071%=      5-min Rain = 0
KASR 041015Z 23002KT 21/16 A2996 RMK A01 T02110155  RH  072%=      5-min Rain = 0
KASR 041020Z 26003KT 21/16 A2996 RMK A01 T02100156  RH  073%=      5-min Rain = 0
KASR 041025Z 24003KT 21/16 A2996 RMK A01 T02050156  RH  075%=      5-min Rain = 0
KASR 041030Z 25004KT 21/16 A2996 RMK A01 T02050157  RH  075%=      5-min Rain = 0
KASR 041035Z 25004KT 21/16 A2996 RMK A01 T02100157  RH  073%=      5-min Rain = 0
KASR 041040Z 23004KT 21/16 A2996 RMK A01 T02110159  RH  074%=      5-min Rain = 0
KASR 041045Z 22004KT 21/16 A2996 RMK A01 T02120162  RH  075%=      5-min Rain = 0
KASR 041050Z 22003KT 21/16 A2996 RMK A01 T02100160  RH  075%=      5-min Rain = 0
KASR 041055Z 24003KT 21/16 A2996 RMK A01 T02060160  RH  076%=      5-min Rain = 0
KASR 041100Z 24004KT 21/16 A2996 RMK A01 T02080160  RH  076%=      5-min Rain = 0
KASR 041105Z 24004KT 21/16 A2996 RMK A01 T02110161  RH  075%=      5-min Rain = 0
KASR 041110Z 25003KT 21/16 A2996 RMK A01 T02130161  RH  074%=      5-min Rain = 0
KASR 041115Z 24003KT 21/16 A2996 RMK A01 T02130160  RH  073%=      5-min Rain = 0
KASR 041120Z 23002KT 21/16 A2997 RMK A01 T02070159  RH  075%=      5-min Rain = 0
KASR 041125Z 25002KT 20/16 A2997 RMK A01 T02020158  RH  078%=      5-min Rain = 0
KASR 041130Z 24003KT 20/16 A2997 RMK A01 T01990158  RH  079%=      5-min Rain = 0
KASR 041135Z 24003KT 21/16 A2997 RMK A01 T02070158  RH  075%=      5-min Rain = 0
KASR 041140Z 22003KT 21/16 A2997 RMK A01 T02050158  RH  076%=      5-min Rain = 0
KASR 041145Z 22004KT 21/16 A2997 RMK A01 T02050157  RH  076%=      5-min Rain = 0
KASR 041150Z 23004KT 21/16 A2997 RMK A01 T02090157  RH  074%=      5-min Rain = 0
KASR 041155Z 23004KT 21/16 A2997 RMK A01 T02120157  RH  072%=      5-min Rain = 0
KASR 041200Z 23003KT 22/16 A2998 RMK A01 T02150157  RH  072%=      5-min Rain = 0
KASR 041205Z 24002KT 21/16 A2997 RMK A01 T02110159  RH  074%=      5-min Rain = 0
KASR 041210Z 25003KT 21/16 A2997 RMK A01 T02100159  RH  074%=      5-min Rain = 0
KASR 041215Z 26003KT 21/16 A2997 RMK A01 T02110159  RH  074%=      5-min Rain = 0
KASR 041220Z 27004KT 22/16 A2997 RMK A01 T02150159  RH  072%=      5-min Rain = 0
KASR 041225Z 26004KT 22/16 A2997 RMK A01 T02190160  RH  071%=      5-min Rain = 0
KASR 041230Z 25004KT 22/16 A2997 RMK A01 T02220161  RH  070%=      5-min Rain = 0
KASR 041235Z 24004KT 23/16 A2998 RMK A01 T02250161  RH  068%=      5-min Rain = 0
KASR 041240Z 25003KT 23/16 A2998 RMK A01 T02270162  RH  068%=      5-min Rain = 0
KASR 041245Z 26003KT 23/16 A2998 RMK A01 T02300162  RH  067%=      5-min Rain = 0
KASR 041250Z 25004KT 23/16 A2998 RMK A01 T02340162  RH  066%=      5-min Rain = 0
KASR 041255Z 26005KT 24/16 A2998 RMK A01 T02400157  RH  061%=      5-min Rain = 0
KASR 041300Z 26005KT 24/16 A2998 RMK A01 T02420157  RH  060%=      5-min Rain = 0
KASR 041305Z 26007KT 24/16 A2998 RMK A01 T02440158  RH  060%=      5-min Rain = 0
KASR 041310Z 26006KT 25/16 A2998 RMK A01 T02460159  RH  060%=      5-min Rain = 0
KASR 041315Z 25006KT 25/16 A2998 RMK A01 T02500159  RH  058%=      5-min Rain = 0
KASR 041320Z 25006KT 25/16 A2998 RMK A01 T02530160  RH  057%=      5-min Rain = 0
KASR 041325Z 25006KT 26/16 A2998 RMK A01 T02570158  RH  055%=      5-min Rain = 0
KASR 041330Z 25006KT 26/16 A2998 RMK A01 T02610160  RH  055%=      5-min Rain = 0
KASR 041335Z 26006KT 27/16 A2998 RMK A01 T02650160  RH  054%=      5-min Rain = 0
KASR 041340Z 26006KT 27/16 A2998 RMK A01 T02690159  RH  052%=      5-min Rain = 0
KASR 041345Z 26006KT 27/16 A2998 RMK A01 T02730157  RH  050%=      5-min Rain = 0
KASR 041350Z 27006KT 28/16 A2998 RMK A01 T02770156  RH  049%=      5-min Rain = 0
KASR 041355Z 27006KT 28/15 A2998 RMK A01 T02810153  RH  047%=      5-min Rain = 0
KASR 041400Z 26006KT 29/16 A2998 RMK A01 T02860157  RH  047%=      5-min Rain = 0
KASR 041405Z 25006KT 29/16 A2998 RMK A01 T02890158  RH  046%=      5-min Rain = 0
KASR 041410Z 27007KT 29/16 A2998 RMK A01 T02930159  RH  045%=      5-min Rain = 0
KASR 041415Z 28007KT 30/16 A2998 RMK A01 T02970159  RH  044%=      5-min Rain = 0
KASR 041420Z 28007KT 30/16 A2998 RMK A01 T02970159  RH  044%=      5-min Rain = 0
KASR 041425Z 28007KT 30/16 A2998 RMK A01 T03000164  RH  045%=      5-min Rain = 0
KASR 041430Z 29009KT 30/16 A2998 RMK A01 T03020158  RH  043%=      5-min Rain = 0
KASR 041435Z 28008KT 31/16 A2999 RMK A01 T03050159  RH  042%=      5-min Rain = 0
KASR 041440Z 29007KT 31/16 A2999 RMK A01 T03090162  RH  042%=      5-min Rain = 0
KASR 041445Z 28007KT 31/16 A2999 RMK A01 T03100163  RH  042%=      5-min Rain = 0
KASR 041450Z 26008KT 31/16 A2999 RMK A01 T03130163  RH  042%=      5-min Rain = 0
KASR 041455Z 28007KT 32/17 A2998 RMK A01 T03160167  RH  042%=      5-min Rain = 0
KASR 041500Z 28006KT 32/17 A2998 RMK A01 T03180171  RH  042%=      5-min Rain = 0
KASR 041505Z 30007KT 32/17 A2998 RMK A01 T03180172  RH  043%=      5-min Rain = 0
KASR 041510Z 28005KT 32/17 A2998 RMK A01 T03200171  RH  042%=      5-min Rain = 0
KASR 041515Z 27006KT 32/17 A2998 RMK A01 T03220171  RH  041%=      5-min Rain = 0
KASR 041520Z 29008KT 33/17 A2998 RMK A01 T03260174  RH  041%=      5-min Rain = 0
KASR 041525Z 30008KT 33/17 A2998 RMK A01 T03270172  RH  041%=      5-min Rain = 0
KASR 041530Z 30008KT 33/17 A2998 RMK A01 T03290173  RH  041%=      5-min Rain = 0
KASR 041535Z 29009KT 33/17 A2998 RMK A01 T03290168  RH  039%=      5-min Rain = 0
KASR 041540Z 30009KT 33/17 A2998 RMK A01 T03290167  RH  039%=      5-min Rain = 0
KASR 041545Z 30007KT 33/17 A2998 RMK A01 T03310173  RH  040%=      5-min Rain = 0
KASR 041550Z 29008KT 33/17 A2998 RMK A01 T03320172  RH  039%=      5-min Rain = 0
KASR 041555Z 29008KT 33/17 A2998 RMK A01 T03330169  RH  039%=      5-min Rain = 0
KASR 041600Z 28010KT 34/17 A2999 RMK A01 T03350165  RH  037%=      5-min Rain = 0
KASR 041605Z 28008KT 34/17 A2999 RMK A01 T03350168  RH  038%=      5-min Rain = 0
KASR 041610Z 29009KT 34/17 A2999 RMK A01 T03360166  RH  037%=      5-min Rain = 0
KASR 041615Z 28008KT 34/17 A2999 RMK A01 T03380166  RH  037%=      5-min Rain = 0
KASR 041620Z 28009G14KT 34/17 A2999 RMK A01 T03410169  RH  037%=      5-min Rain = 0
KASR 041625Z 28008KT 34/17 A2999 RMK A01 T03400167  RH  036%=      5-min Rain = 0
KASR 041630Z 29007G13KT 34/17 A2999 RMK A01 T03410168  RH  036%=      5-min Rain = 0
KASR 041635Z 31009KT 34/17 A2999 RMK A01 T03420169  RH  037%=      5-min Rain = 0
KASR 041640Z 31008KT 35/17 A2999 RMK A01 T03450170  RH  036%=      5-min Rain = 0
KASR 041645Z 29007KT 35/17 A2999 RMK A01 T03460170  RH  036%=      5-min Rain = 0
KASR 041650Z 30008G15KT 35/17 A2999 RMK A01 T03490171  RH  036%=      5-min Rain = 0
KASR 041655Z 30007KT 35/17 A2999 RMK A01 T03500168  RH  035%=      5-min Rain = 0
KASR 041700Z 31008KT 35/17 A2999 RMK A01 T03490166  RH  035%=      5-min Rain = 0
KASR 041705Z 28008KT 35/17 A2999 RMK A01 T03470165  RH  035%=      5-min Rain = 0
KASR 041710Z 29007KT 35/17 A2999 RMK A01 T03510166  RH  034%=      5-min Rain = 0
KASR 041715Z 31007G12KT 35/17 A2999 RMK A01 T03490165  RH  034%=      5-min Rain = 0
KASR 041720Z 32008KT 35/17 A2999 RMK A01 T03500168  RH  035%=      5-min Rain = 0
KASR 041725Z 34006KT 35/17 A2999 RMK A01 T03500169  RH  035%=      5-min Rain = 0
KASR 041730Z 30007KT 35/17 A2999 RMK A01 T03510166  RH  034%=      5-min Rain = 0
KASR 041735Z 33007G12KT 35/17 A2999 RMK A01 T03530171  RH  035%=      5-min Rain = 0
KASR 041740Z 31007KT 35/17 A2999 RMK A01 T03540171  RH  035%=      5-min Rain = 0
KASR 041745Z 31004G9KT 35/17 A2998 RMK A01 T03530169  RH  034%=      5-min Rain = 0
KASR 041750Z 30006KT 35/17 A2998 RMK A01 T03540166  RH  034%=      5-min Rain = 0
KASR 041755Z 29005KT 36/17 A2998 RMK A01 T03550166  RH  033%=      5-min Rain = 0
KASR 041800Z 32003G8KT 36/16 A2998 RMK A01 T03580164  RH  033%=      5-min Rain = 0
KASR 041805Z 34004G10KT 36/17 A2998 RMK A01 T03590165  RH  033%=      5-min Rain = 0
KASR 041810Z 32005KT 36/16 A2998 RMK A01 T03560161  RH  032%=      5-min Rain = 0
KASR 041815Z 35004KT 36/16 A2998 RMK A01 T03560161  RH  032%=      5-min Rain = 0
KASR 041820Z 33003KT 36/16 A2998 RMK A01 T03600159  RH  031%=      5-min Rain = 0
KASR 041825Z 01003KT 36/15 A2997 RMK A01 T03620147  RH  028%=      5-min Rain = 0
KASR 041830Z 04003KT 36/16 A2997 RMK A01 T03640156  RH  030%=      5-min Rain = 0
KASR 041835Z 05004KT 37/15 A2997 RMK A01 T03660150  RH  028%=      5-min Rain = 0
KASR 041840Z 04002KT 36/15 A2997 RMK A01 T03630151  RH  029%=      5-min Rain = 0
KASR 041845Z 26002KT 36/15 A2996 RMK A01 T03620153  RH  030%=      5-min Rain = 0
KASR 041850Z 07002KT 37/16 A2996 RMK A01 T03670156  RH  029%=      5-min Rain = 0
KASR 041855Z 29002KT 37/16 A2996 RMK A01 T03670159  RH  030%=      5-min Rain = 0
KASR 041900Z 10002KT 37/16 A2996 RMK A01 T03730161  RH  029%=      5-min Rain = 0
KASR 041905Z 10002KT 37/16 A2996 RMK A01 T03710155  RH  029%=      5-min Rain = 0
KASR 041910Z 08003KT 37/16 A2995 RMK A01 T03700155  RH  029%=      5-min Rain = 0
KASR 041915Z 07002KT 37/16 A2995 RMK A01 T03690155  RH  029%=      5-min Rain = 0
KASR 041920Z 13001KT 38/16 A2995 RMK A01 T03750155  RH  028%=      5-min Rain = 0
KASR 041925Z 05004KT 38/15 A2995 RMK A01 T03760154  RH  028%=      5-min Rain = 0
KASR 041930Z 06004KT 37/15 A2995 RMK A01 T03740147  RH  027%=      5-min Rain = 0
KASR 041935Z 03003KT 37/15 A2994 RMK A01 T03710146  RH  027%=      5-min Rain = 0
KASR 041940Z 06002KT 37/14 A2994 RMK A01 T03710140  RH  026%=      5-min Rain = 0
KASR 041945Z 25003KT 38/16 A2994 RMK A01 T03750155  RH  028%=      5-min Rain = 0
KASR 041950Z 22004G9KT 38/16 A2994 RMK A01 T03750161  RH  029%=      5-min Rain = 0
KASR 041955Z 17004G10KT 38/15 A2994 RMK A01 T03750154  RH  028%=      5-min Rain = 0
KASR 042000Z 15006KT 38/16 A2993 RMK A01 T03790156  RH  028%=      5-min Rain = 0
KASR 042005Z 17008KT 37/15 A2993 RMK A01 T03700151  RH  028%=      5-min Rain = 0
KASR 042010Z 18008KT 37/16 A2993 RMK A01 T03730155  RH  028%=      5-min Rain = 0
KASR 042015Z 17004KT 38/15 A2993 RMK A01 T03760152  RH  027%=      5-min Rain = 0
KASR 042020Z 13005KT 38/16 A2993 RMK A01 T03800156  RH  027%=      5-min Rain = 0
KASR 042025Z 13004KT 38/15 A2993 RMK A01 T03770150  RH  027%=      5-min Rain = 0
KASR 042030Z 10006G11KT 38/15 A2993 RMK A01 T03790149  RH  026%=      5-min Rain = 0
KASR 042035Z 12006KT 38/15 A2992 RMK A01 T03790149  RH  026%=      5-min Rain = 0
KASR 042040Z 12004KT 38/15 A2992 RMK A01 T03770148  RH  026%=      5-min Rain = 0
KASR 042045Z 01004KT 38/15 A2992 RMK A01 T03760151  RH  027%=      5-min Rain = 0
KASR 042050Z 05003KT 38/16 A2991 RMK A01 T03800155  RH  027%=      5-min Rain = 0
KASR 042055Z 10008G13KT 38/15 A2991 RMK A01 T03800146  RH  026%=      5-min Rain = 0
KASR 042100Z 11007KT 38/14 A2991 RMK A01 T03760144  RH  026%=      5-min Rain = 0
KASR 042105Z 12005KT 38/14 A2991 RMK A01 T03760142  RH  025%=      5-min Rain = 0
KASR 042110Z 07004KT 38/14 A299 RMK A01 T03780144  RH  026%=      5-min Rain = 0
KASR 042115Z 08004KT 38/15 A299 RMK A01 T03800148  RH  026%=      5-min Rain = 0
KASR 042120Z 12006G11KT 38/14 A299 RMK A01 T03790144  RH  025%=      5-min Rain = 0
KASR 042125Z 14005KT 38/15 A299 RMK A01 T03800146  RH  026%=      5-min Rain = 0
KASR 042130Z 13008G13KT 38/15 A2989 RMK A01 T03800147  RH  026%=      5-min Rain = 0
KASR 042135Z 14007KT 38/15 A2989 RMK A01 T03780146  RH  026%=      5-min Rain = 0
KASR 042140Z 17007G13KT 38/15 A2989 RMK A01 T03760149  RH  027%=      5-min Rain = 0
KASR 042145Z 19006KT 38/15 A2989 RMK A01 T03750148  RH  027%=      5-min Rain = 0
KASR 042150Z 19004KT 38/15 A2988 RMK A01 T03770148  RH  026%=      5-min Rain = 0
KASR 042155Z 18003KT 38/15 A2988 RMK A01 T03780145  RH  026%=      5-min Rain = 0
KASR 042200Z 17002KT 38/14 A2988 RMK A01 T03800144  RH  025%=      5-min Rain = 0
KASR 042205Z 13004KT 38/15 A2988 RMK A01 T03810145  RH  025%=      5-min Rain = 0
KASR 042210Z 10005KT 38/15 A2988 RMK A01 T03790148  RH  026%=      5-min Rain = 0
KASR 042215Z 09003KT 38/14 A2988 RMK A01 T03780144  RH  025%=      5-min Rain = 0
KASR 042220Z 07005KT 38/15 A2987 RMK A01 T03790148  RH  026%=      5-min Rain = 0
KASR 042225Z 12005KT 38/15 A2987 RMK A01 T03790150  RH  027%=      5-min Rain = 0
KASR 042230Z 17005KT 38/15 A2987 RMK A01 T03800152  RH  027%=      5-min Rain = 0
KASR 042235Z 16006KT 38/15 A2987 RMK A01 T03780150  RH  026%=      5-min Rain = 0
KASR 042240Z 14005KT 38/15 A2987 RMK A01 T03790148  RH  026%=      5-min Rain = 0
KASR 042245Z 16005KT 38/15 A2987 RMK A01 T03790152  RH  027%=      5-min Rain = 0
KASR 042250Z 18005KT 38/15 A2987 RMK A01 T03760148  RH  026%=      5-min Rain = 0
KASR 042255Z 16004KT 38/16 A2986 RMK A01 T03780156  RH  028%=      5-min Rain = 0
KASR 042300Z 09004KT 38/15 A2986 RMK A01 T03790147  RH  026%=      5-min Rain = 0
KASR 042305Z 12004KT 38/15 A2986 RMK A01 T03780148  RH  026%=      5-min Rain = 0
KASR 042310Z 12006G12KT 38/15 A2986 RMK A01 T03780150  RH  027%=      5-min Rain = 0
KASR 042315Z 12006KT 38/15 A2986 RMK A01 T03760150  RH  027%=      5-min Rain = 0
KASR 042320Z 12004KT 37/15 A2986 RMK A01 T03720151  RH  028%=      5-min Rain = 0
KASR 042325Z 10003KT 37/15 A2985 RMK A01 T03680148  RH  028%=      5-min Rain = 0
KASR 042330Z 10005KT 36/15 A2985 RMK A01 T03630153  RH  029%=      5-min Rain = 0
KASR 042335Z 12005G10KT 36/16 A2985 RMK A01 T03640155  RH  030%=      5-min Rain = 0
KASR 042340Z 13007KT 36/15 A2985 RMK A01 T03630149  RH  029%=      5-min Rain = 0
KASR 042345Z 11005KT 36/15 A2985 RMK A01 T03630149  RH  029%=      5-min Rain = 0
KASR 042350Z 11004KT 36/16 A2985 RMK A01 T03620157  RH  030%=      5-min Rain = 0
KASR 042355Z 10004KT 36/16 A2985 RMK A01 T03610160  RH  031%=      5-min Rain = 0
KASR 050000Z 08003KT 36/16 A2985 RMK A01 T03610158  RH  031%=      5-min Rain = 0
KASR 050005Z 08003KT 36/17 A2985 RMK A01 T03600165  RH  032%=      5-min Rain = 0
KASR 050010Z 07004KT 36/17 A2985 RMK A01 T03560167  RH  034%=      5-min Rain = 0
KASR 050015Z 09004KT 35/16 A2985 RMK A01 T03530161  RH  033%=      5-min Rain = 0
KASR 050020Z 07004KT 35/16 A2985 RMK A01 T03510164  RH  034%=      5-min Rain = 0
KASR 050025Z 06004KT 35/16 A2986 RMK A01 T03490164  RH  034%=      5-min Rain = 0
KASR 050030Z 06005KT 35/17 A2986 RMK A01 T03480166  RH  035%=      5-min Rain = 0
KASR 050035Z 06005KT 35/17 A2986 RMK A01 T03460167  RH  035%=      5-min Rain = 0
KASR 050040Z 06006KT 35/16 A2986 RMK A01 T03450164  RH  035%=      5-min Rain = 0
KASR 050045Z 06005KT 34/16 A2987 RMK A01 T03440164  RH  035%=      5-min Rain = 0
KASR 050050Z 06005KT 34/17 A2987 RMK A01 T03420165  RH  036%=      5-min Rain = 0
KASR 050055Z 06007KT 34/17 A2987 RMK A01 T03420165  RH  036%=      5-min Rain = 0
KASR 050100Z 04015G29KT 33/17 A2989 RMK A01 T03330174  RH  040%=      5-min Rain = 0
KASR 050105Z 04018G29KT 29/20 A299 RMK A01 T02910196  RH  058%=      5-min Rain = 0
KASR 050110Z 04017G23KT 28/20 A299 RMK A01 T02800199  RH  063%=      5-min Rain = 0
KASR 050115Z 04013G18KT 28/20 A299 RMK A01 T02800199  RH  063%=      5-min Rain = 0
KASR 050120Z 04012G17KT 28/20 A299 RMK A01 T02820197  RH  062%=      5-min Rain = 0
KASR 050125Z 04010G17KT 28/20 A299 RMK A01 T02830197  RH  061%=      5-min Rain = 0
KASR 050130Z 04014G20KT 28/20 A299 RMK A01 T02830197  RH  061%=      5-min Rain = 0
KASR 050135Z 04014G21KT 28/20 A2991 RMK A01 T02820197  RH  061%=      5-min Rain = 0
KASR 050140Z 04013G18KT 28/20 A299 RMK A01 T02810197  RH  062%=      5-min Rain = 0
KASR 050145Z 05010G18KT 28/20 A299 RMK A01 T02810197  RH  062%=      5-min Rain = 0
KASR 050150Z 05010G16KT 28/20 A2991 RMK A01 T02810197  RH  062%=      5-min Rain = 0
KASR 050155Z 06009G15KT 28/20 A2991 RMK A01 T02810197  RH  062%=      5-min Rain = 0
KASR 050200Z 05009G15KT 28/20 A299 RMK A01 T02820195  RH  061%=      5-min Rain = 0
KASR 050205Z 06010KT 29/19 A299 RMK A01 T02850194  RH  059%=      5-min Rain = 0
KASR 050210Z 06008KT 29/19 A299 RMK A01 T02860194  RH  059%=      5-min Rain = 0
KASR 050215Z 06009G14KT 29/19 A299 RMK A01 T02860193  RH  059%=      5-min Rain = 0
KASR 050220Z 07006KT 29/19 A299 RMK A01 T02860193  RH  059%=      5-min Rain = 0
KASR 050225Z 07008KT 29/19 A299 RMK A01 T02870193  RH  058%=      5-min Rain = 0
KASR 050230Z 08007KT 29/19 A2989 RMK A01 T02870192  RH  058%=      5-min Rain = 0
KASR 050235Z 08007G12KT 29/19 A2989 RMK A01 T02870192  RH  058%=      5-min Rain = 0
KASR 050240Z 08007G12KT 29/19 A2989 RMK A01 T02870192  RH  058%=      5-min Rain = 0
KASR 050245Z 08007KT 29/19 A2989 RMK A01 T02880191  RH  057%=      5-min Rain = 0
KASR 050250Z 09007KT 29/19 A2989 RMK A01 T02880191  RH  057%=      5-min Rain = 0
KASR 050255Z 09007KT 29/19 A2989 RMK A01 T02890190  RH  057%=      5-min Rain = 0
KASR 050300Z 09006KT 29/19 A2989 RMK A01 T02890190  RH  057%=      5-min Rain = 0
KASR 050305Z 10005KT 29/19 A2989 RMK A01 T02890190  RH  057%=      5-min Rain = 0
KASR 050310Z 10004KT 29/19 A2989 RMK A01 T02880190  RH  057%=      5-min Rain = 0
KASR 050315Z 11004KT 29/19 A2989 RMK A01 T02870191  RH  057%=      5-min Rain = 0
KASR 050320Z 11004KT 29/19 A2989 RMK A01 T02870190  RH  057%=      5-min Rain = 0
KASR 050325Z 10005KT 29/19 A2989 RMK A01 T02860191  RH  058%=      5-min Rain = 0
KASR 050330Z 10005KT 29/19 A2989 RMK A01 T02860191  RH  058%=      5-min Rain = 0
KASR 050335Z 10004KT 28/19 A299 RMK A01 T02840192  RH  059%=      5-min Rain = 0
KASR 050340Z 10004KT 28/19 A299 RMK A01 T02820192  RH  059%=      5-min Rain = 0
KASR 050345Z 08003KT 28/19 A299 RMK A01 T02800192  RH  060%=      5-min Rain = 0
KASR 050350Z 09002KT 28/19 A299 RMK A01 T02780192  RH  061%=      5-min Rain = 0
KASR 050355Z 09003KT 28/19 A2991 RMK A01 T02760192  RH  062%=      5-min Rain = 0
KASR 050400Z 09003KT 27/19 A299 RMK A01 T02730192  RH  063%=      5-min Rain = 0
KASR 050405Z 09004KT 27/19 A299 RMK A01 T02710192  RH  064%=      5-min Rain = 0
KASR 050410Z 09004KT 27/19 A299 RMK A01 T02710193  RH  064%=      5-min Rain = 0
KASR 050415Z 08004KT 27/19 A299 RMK A01 T02720193  RH  064%=      5-min Rain = 0
KASR 050420Z 07005KT 27/19 A2991 RMK A01 T02720194  RH  064%=      5-min Rain = 0
KASR 050425Z 07005KT 27/20 A2991 RMK A01 T02730195  RH  064%=      5-min Rain = 0
KASR 050430Z 07005KT 27/20 A2991 RMK A01 T02740196  RH  064%=      5-min Rain = 0
KASR 050435Z 08005KT 27/20 A299 RMK A01 T02740196  RH  064%=      5-min Rain = 0
KASR 050440Z 09005KT 27/20 A299 RMK A01 T02730196  RH  064%=      5-min Rain = 0
KASR 050445Z 08004KT 27/20 A299 RMK A01 T02720196  RH  065%=      5-min Rain = 0
KASR 050450Z 07004KT 27/20 A299 RMK A01 T02710197  RH  066%=      5-min Rain = 0
KASR 050455Z 07004KT 27/20 A299 RMK A01 T02690197  RH  066%=      5-min Rain = 0

Page generated in 0.0094 seconds.